createdAt,value
2019-06-08T00:00:33.416Z,16.20
2019-06-08T00:03:02.003Z,16.20
2019-06-08T00:05:30.997Z,16.20
2019-06-08T00:11:50.081Z,16.20
2019-06-08T00:14:38.000Z,16.20
2019-06-08T00:17:37.726Z,16.20
2019-06-08T00:20:17.584Z,16.10
2019-06-08T00:22:58.554Z,16.10
2019-06-08T00:25:39.574Z,16.00
2019-06-08T00:28:20.457Z,16.00
2019-06-08T00:31:01.748Z,15.90
2019-06-08T00:33:42.964Z,15.90
2019-06-08T00:36:24.953Z,15.90
2019-06-08T00:39:06.747Z,15.90
2019-06-08T00:41:47.398Z,15.80
2019-06-08T00:44:28.927Z,15.80
2019-06-08T00:47:10.053Z,15.80
2019-06-08T00:49:51.068Z,15.80
2019-06-08T00:52:32.441Z,15.70
2019-06-08T00:55:13.149Z,15.70
2019-06-08T00:57:53.830Z,15.70
2019-06-08T01:00:34.550Z,15.70
2019-06-08T01:03:03.132Z,15.70
2019-06-08T01:05:31.752Z,15.60
2019-06-08T01:08:00.355Z,15.60
2019-06-08T01:10:29.722Z,15.60
2019-06-08T01:12:58.329Z,15.60
2019-06-08T01:15:32.688Z,15.60
2019-06-08T01:18:16.685Z,15.60
2019-06-08T01:24:16.169Z,15.60
2019-06-08T01:26:57.167Z,15.50
2019-06-08T01:29:38.016Z,15.50
2019-06-08T01:32:20.297Z,15.50
2019-06-08T01:35:01.441Z,15.60
2019-06-08T01:37:42.300Z,15.50
2019-06-08T01:40:23.303Z,15.50
2019-06-08T01:43:03.759Z,15.60
2019-06-08T01:45:45.088Z,15.60
2019-06-08T01:48:26.251Z,15.50
2019-06-08T01:54:26.810Z,15.40
2019-06-08T01:57:07.763Z,15.40
2019-06-08T01:59:36.387Z,15.40
2019-06-08T02:02:25.587Z,15.40
2019-06-08T02:05:14.591Z,15.30
2019-06-08T02:08:02.510Z,15.30
2019-06-08T02:10:50.801Z,15.30
2019-06-08T02:13:38.736Z,15.30
2019-06-08T02:16:27.371Z,15.30
2019-06-08T02:19:16.621Z,15.20
2019-06-08T02:25:03.290Z,15.20
2019-06-08T02:27:43.893Z,15.10
2019-06-08T02:30:24.274Z,15.10
2019-06-08T02:33:05.491Z,15.10
2019-06-08T02:35:46.449Z,15.10
2019-06-08T02:41:37.525Z,15.10
2019-06-08T02:44:08.373Z,15.10
2019-06-08T02:46:38.195Z,15.10
2019-06-08T02:49:07.417Z,15.10
2019-06-08T02:51:55.548Z,15.10
2019-06-08T02:54:43.669Z,15.10
2019-06-08T02:57:52.318Z,15.10
2019-06-08T03:00:41.076Z,15.00
2019-06-08T03:03:50.111Z,15.00
2019-06-08T03:06:39.433Z,15.00
2019-06-08T03:09:28.507Z,14.90
2019-06-08T03:12:40.283Z,14.90
2019-06-08T03:15:49.449Z,14.90
2019-06-08T03:18:38.678Z,14.90
2019-06-08T03:21:27.574Z,14.90
2019-06-08T03:24:08.217Z,14.90
2019-06-08T03:29:53.981Z,14.90
2019-06-08T03:32:39.783Z,15.00
2019-06-08T03:35:17.358Z,14.90
2019-06-08T03:37:58.185Z,14.90
2019-06-08T03:40:40.562Z,14.90
2019-06-08T03:43:22.181Z,14.90
2019-06-08T03:46:02.979Z,15.00
2019-06-08T03:48:45.624Z,14.90
2019-06-08T03:51:26.330Z,15.00
2019-06-08T03:54:07.414Z,15.00
2019-06-08T03:56:48.602Z,15.00
2019-06-08T03:59:29.192Z,15.00
2019-06-08T04:02:13.501Z,15.00
2019-06-08T04:04:54.518Z,15.00
2019-06-08T04:07:39.840Z,15.10
2019-06-08T04:10:20.710Z,15.10
2019-06-08T04:22:26.034Z,15.30
2019-06-08T04:25:07.643Z,15.50
2019-06-08T04:27:48.438Z,15.80
2019-06-08T04:30:29.483Z,15.90
2019-06-08T04:33:10.124Z,15.80
2019-06-08T04:36:10.042Z,15.60
2019-06-08T04:38:50.827Z,15.50
2019-06-08T04:41:32.228Z,15.50
2019-06-08T04:44:13.456Z,16.20
2019-06-08T04:46:43.264Z,17.40
2019-06-08T04:49:31.771Z,18.10
2019-06-08T04:52:19.695Z,18.60
2019-06-08T04:55:06.902Z,19.20
2019-06-08T05:00:50.314Z,18.70
2019-06-08T05:03:39.242Z,18.50
2019-06-08T05:09:57.789Z,18.90
2019-06-08T05:12:47.757Z,19.40
2019-06-08T05:15:35.636Z,19.10
2019-06-08T05:18:25.965Z,18.80
2019-06-08T05:21:13.437Z,19.50
2019-06-08T05:23:58.626Z,19.60
2019-06-08T05:26:37.169Z,19.60
2019-06-08T05:29:17.913Z,19.00
2019-06-08T05:31:47.628Z,18.70
2019-06-08T05:34:16.228Z,18.40
2019-06-08T05:36:45.451Z,17.80
2019-06-08T05:39:14.090Z,17.60
2019-06-08T05:41:43.458Z,17.00
2019-06-08T05:44:12.365Z,16.80
2019-06-08T05:46:41.732Z,16.60
2019-06-08T05:49:10.365Z,16.40
2019-06-08T05:51:58.301Z,16.40
2019-06-08T05:54:46.249Z,16.40
2019-06-08T05:57:34.593Z,16.50
2019-06-08T06:00:22.553Z,16.60
2019-06-08T06:03:10.581Z,16.40
2019-06-08T06:05:58.874Z,16.40
2019-06-08T06:08:46.828Z,16.30
2019-06-08T06:11:35.085Z,16.40
2019-06-08T06:14:23.430Z,16.40
2019-06-08T06:20:18.377Z,16.50
2019-06-08T06:23:06.289Z,16.60
2019-06-08T06:25:47.545Z,16.70
2019-06-08T06:28:29.221Z,16.60
2019-06-08T06:31:10.289Z,16.50
2019-06-08T06:36:59.277Z,16.50
2019-06-08T06:39:41.823Z,16.40
2019-06-08T06:42:24.747Z,16.20
2019-06-08T06:45:05.223Z,16.30
2019-06-08T06:47:33.837Z,16.30
2019-06-08T06:53:53.301Z,16.80
2019-06-08T06:56:43.076Z,17.50
2019-06-08T07:02:41.529Z,19.40
2019-06-08T07:08:22.686Z,20.20
2019-06-08T07:11:10.651Z,20.50
2019-06-08T07:13:58.568Z,20.40
2019-06-08T07:16:47.708Z,20.90
2019-06-08T07:19:36.424Z,21.00
2019-06-08T07:22:24.769Z,20.90
2019-06-08T07:25:05.476Z,20.40
2019-06-08T07:28:05.160Z,20.20
2019-06-08T07:30:47.292Z,19.90
2019-06-08T07:33:28.351Z,19.40
2019-06-08T07:36:09.794Z,19.50
2019-06-08T07:38:51.398Z,19.50
2019-06-08T07:41:33.029Z,19.20
2019-06-08T07:44:13.604Z,18.80
2019-06-08T07:46:55.814Z,18.50
2019-06-08T07:49:36.625Z,18.00
2019-06-08T07:52:17.089Z,17.80
2019-06-08T07:54:58.596Z,17.70
2019-06-08T07:57:39.665Z,17.60
2019-06-08T08:00:21.003Z,17.70
2019-06-08T08:03:01.538Z,17.70
2019-06-08T08:05:42.565Z,17.90
2019-06-08T08:08:23.077Z,17.80
2019-06-08T08:17:18.086Z,18.10
2019-06-08T08:23:09.141Z,18.20
2019-06-08T08:25:37.918Z,17.90
2019-06-08T08:28:08.209Z,17.70
2019-06-08T08:30:37.709Z,17.50
2019-06-08T08:33:07.793Z,17.40
2019-06-08T08:35:38.086Z,17.30
2019-06-08T08:38:07.638Z,17.30
2019-06-08T08:40:59.813Z,17.20
2019-06-08T08:43:48.323Z,17.00
2019-06-08T08:46:35.405Z,17.10
2019-06-08T08:56:22.406Z,17.20
2019-06-08T08:59:28.337Z,17.30
2019-06-08T09:02:20.757Z,17.20
2019-06-08T09:05:08.371Z,17.30
2019-06-08T09:07:56.386Z,17.30
2019-06-08T09:10:45.057Z,17.20
2019-06-08T09:13:33.092Z,17.20
2019-06-08T09:16:21.013Z,17.10
2019-06-08T09:19:09.365Z,17.00
2019-06-08T09:25:41.617Z,17.20
2019-06-08T09:28:29.585Z,17.40
2019-06-08T09:35:04.393Z,17.40
2019-06-08T09:41:18.475Z,17.20
2019-06-08T09:43:48.578Z,17.30
2019-06-08T09:46:17.930Z,17.40
2019-06-08T09:48:48.652Z,17.50
2019-06-08T09:51:18.693Z,17.50
2019-06-08T09:54:11.821Z,17.60
2019-06-08T09:57:00.690Z,17.50
2019-06-08T09:59:48.253Z,17.70
2019-06-08T10:08:56.362Z,17.20
2019-06-08T10:11:44.338Z,17.00
2019-06-08T10:14:13.090Z,17.20
2019-06-08T10:16:42.085Z,17.30
2019-06-08T10:19:10.865Z,17.40
2019-06-08T10:21:42.862Z,17.40
2019-06-08T10:24:09.977Z,17.50
2019-06-08T10:26:38.599Z,17.70
2019-06-08T10:29:10.129Z,17.70
2019-06-08T10:32:18.056Z,17.60
2019-06-08T10:37:55.630Z,17.30
2019-06-08T10:40:44.602Z,17.20
2019-06-08T10:43:32.703Z,17.10
2019-06-08T10:46:21.091Z,17.10
2019-06-08T10:52:21.984Z,17.10
2019-06-08T11:01:02.267Z,17.00
2019-06-08T11:03:48.961Z,16.80
2019-06-08T11:06:39.838Z,16.90
2019-06-08T11:09:28.589Z,16.90
2019-06-08T11:12:18.326Z,16.90
2019-06-08T11:15:09.541Z,16.80
2019-06-08T11:18:00.433Z,16.90
2019-06-08T11:23:28.781Z,17.10
2019-06-08T11:26:19.108Z,17.10
2019-06-08T11:32:12.542Z,17.00
2019-06-08T11:34:53.806Z,17.00
2019-06-08T11:37:34.532Z,17.00
2019-06-08T11:40:18.048Z,17.20
2019-06-08T11:43:18.340Z,17.40
2019-06-08T11:52:09.095Z,17.70
2019-06-08T11:54:49.809Z,17.80
2019-06-08T11:57:58.655Z,18.00
2019-06-08T12:04:18.363Z,18.30
2019-06-08T12:07:09.083Z,18.10
2019-06-08T12:09:58.371Z,18.00
2019-06-08T12:12:46.241Z,17.90
2019-06-08T12:15:34.306Z,17.90
2019-06-08T12:18:21.468Z,18.00
2019-06-08T12:21:11.322Z,18.00
2019-06-08T12:23:59.466Z,18.10
2019-06-08T12:26:40.445Z,18.00
2019-06-08T12:29:20.978Z,18.20
2019-06-08T12:35:08.174Z,18.20
2019-06-08T12:37:51.560Z,18.20
2019-06-08T12:40:32.029Z,18.20
2019-06-08T12:43:01.398Z,18.20
2019-06-08T12:45:49.357Z,18.10
2019-06-08T12:48:38.483Z,18.10
2019-06-08T12:51:28.080Z,17.90
2019-06-08T12:54:19.337Z,18.00
2019-06-08T12:57:10.143Z,18.20
2019-06-08T12:59:38.460Z,18.30
2019-06-08T13:02:28.064Z,18.50
2019-06-08T13:05:18.953Z,18.60
2019-06-08T13:08:05.166Z,18.70
2019-06-08T13:10:53.118Z,18.70
2019-06-08T13:13:41.048Z,18.60
2019-06-08T13:16:29.010Z,18.50
2019-06-08T13:19:17.382Z,18.50
2019-06-08T13:22:05.811Z,18.50
2019-06-08T13:24:53.073Z,18.50
2019-06-08T13:27:33.497Z,18.50
2019-06-08T13:33:12.164Z,18.70
2019-06-08T13:35:52.753Z,18.70
2019-06-08T13:38:33.437Z,18.60
2019-06-08T13:44:27.877Z,18.40
2019-06-08T13:47:11.156Z,18.20
2019-06-08T13:49:50.806Z,18.10
2019-06-08T13:52:31.604Z,18.00
2019-06-08T13:55:00.209Z,18.00
2019-06-08T13:57:28.826Z,18.00
2019-06-08T13:59:57.910Z,18.00
2019-06-08T14:02:29.007Z,18.00
2019-06-08T14:04:59.142Z,18.00
2019-06-08T14:07:34.159Z,18.00
2019-06-08T14:09:58.789Z,18.00
2019-06-08T14:12:30.639Z,18.00
2019-06-08T14:14:58.422Z,18.00
2019-06-08T14:17:27.218Z,17.90
2019-06-08T14:20:38.269Z,18.00
2019-06-08T14:23:25.712Z,18.00
2019-06-08T14:26:13.643Z,18.10
2019-06-08T14:29:01.894Z,18.00
2019-06-08T14:31:51.261Z,18.00
2019-06-08T14:34:39.225Z,18.00
2019-06-08T14:37:28.958Z,18.10
2019-06-08T14:43:24.707Z,18.10
2019-06-08T14:46:13.482Z,18.10
2019-06-08T14:49:01.433Z,18.20
2019-06-08T14:54:44.080Z,18.40
2019-06-08T14:57:50.021Z,18.70
2019-06-08T15:07:02.165Z,19.00
2019-06-08T15:09:50.125Z,18.90
2019-06-08T15:12:38.437Z,18.90
2019-06-08T15:15:29.950Z,18.90
2019-06-08T15:17:58.498Z,19.00
2019-06-08T15:20:28.469Z,19.10
2019-06-08T15:22:57.918Z,19.00
2019-06-08T15:25:29.552Z,18.90
2019-06-08T15:27:58.187Z,18.80
2019-06-08T15:30:29.433Z,18.60
2019-06-08T15:32:58.616Z,18.50
2019-06-08T15:35:47.561Z,18.40
2019-06-08T15:38:38.066Z,18.50
2019-06-08T15:41:28.707Z,18.60
2019-06-08T15:44:20.759Z,18.70
2019-06-08T15:47:08.067Z,18.60
2019-06-08T15:49:39.028Z,18.60
2019-06-08T15:54:58.853Z,18.40
2019-06-08T15:57:29.619Z,18.30
2019-06-08T15:59:58.582Z,18.40
2019-06-08T16:02:27.717Z,18.40
2019-06-08T16:04:56.424Z,18.40
2019-06-08T16:07:28.489Z,18.30
2019-06-08T16:09:55.694Z,18.30
2019-06-08T16:12:24.520Z,18.20
2019-06-08T16:14:53.100Z,18.20
2019-06-08T16:17:21.966Z,18.10
2019-06-08T16:19:53.135Z,18.20
2019-06-08T16:22:20.981Z,18.20
2019-06-08T16:24:49.589Z,18.30
2019-06-08T16:27:37.893Z,18.30
2019-06-08T16:30:18.836Z,18.30
2019-06-08T16:33:00.373Z,18.30
2019-06-08T16:35:41.497Z,18.30
2019-06-08T16:38:42.003Z,18.20
2019-06-08T16:41:22.837Z,18.20
2019-06-08T16:44:06.923Z,18.10
2019-06-08T16:46:46.233Z,18.10
2019-06-08T16:49:27.201Z,18.10
2019-06-08T16:52:08.257Z,18.00
2019-06-08T16:54:49.490Z,17.70
2019-06-08T16:57:31.069Z,17.70
2019-06-08T17:03:31.207Z,18.00
2019-06-08T17:06:12.505Z,18.10
2019-06-08T17:08:53.851Z,17.90
2019-06-08T17:11:34.725Z,17.80
2019-06-08T17:14:15.176Z,17.90
2019-06-08T17:16:55.834Z,17.80
2019-06-08T17:19:36.765Z,17.70
2019-06-08T17:22:17.173Z,17.70
2019-06-08T17:24:57.629Z,17.70
2019-06-08T17:27:38.968Z,17.70
2019-06-08T17:30:19.561Z,17.70
2019-06-08T17:33:20.253Z,17.60
2019-06-08T17:36:01.290Z,17.60
2019-06-08T17:38:43.544Z,17.60
2019-06-08T17:41:24.102Z,17.70
2019-06-08T17:44:05.414Z,17.70
2019-06-08T17:46:46.057Z,17.70
2019-06-08T17:49:27.128Z,17.70
2019-06-08T17:52:08.323Z,17.70
2019-06-08T17:54:49.962Z,17.90
2019-06-08T17:57:43.541Z,18.00
2019-06-08T18:00:14.042Z,18.00
2019-06-08T18:02:57.782Z,18.00
2019-06-08T18:05:41.942Z,17.90
2019-06-08T18:08:20.577Z,17.80
2019-06-08T18:11:02.041Z,17.70
2019-06-08T18:13:44.454Z,17.70
2019-06-08T18:19:37.966Z,17.40
2019-06-08T18:22:18.685Z,17.60
2019-06-08T18:24:48.011Z,17.70
2019-06-08T18:27:18.085Z,17.80
2019-06-08T18:29:59.328Z,17.70
2019-06-08T18:32:40.993Z,17.70
2019-06-08T18:35:23.541Z,17.70
2019-06-08T18:38:07.116Z,17.70
2019-06-08T18:40:48.330Z,17.50
2019-06-08T18:43:29.677Z,17.40
2019-06-08T18:46:10.319Z,17.30
2019-06-08T18:48:51.930Z,17.20
2019-06-08T18:51:33.368Z,17.20
2019-06-08T18:54:14.888Z,17.10
2019-06-08T18:56:57.617Z,17.10
2019-06-08T18:59:28.590Z,17.00
2019-06-08T19:01:56.763Z,17.00
2019-06-08T19:04:27.637Z,16.90
2019-06-08T19:06:58.929Z,16.80
2019-06-08T19:09:27.257Z,16.60
2019-06-08T19:11:57.470Z,16.80
2019-06-08T19:14:29.013Z,16.80
2019-06-08T19:16:58.113Z,16.70
2019-06-08T19:19:48.547Z,16.70
2019-06-08T19:22:38.444Z,16.70
2019-06-08T19:25:27.492Z,16.60
2019-06-08T19:28:17.549Z,16.50
2019-06-08T19:30:58.301Z,16.30
2019-06-08T19:36:43.112Z,16.10
2019-06-08T19:39:12.852Z,16.00
2019-06-08T19:41:42.544Z,15.90
2019-06-08T19:44:11.767Z,15.90
2019-06-08T19:46:40.399Z,15.90
2019-06-08T19:49:09.249Z,15.80
2019-06-08T19:51:58.080Z,15.80
2019-06-08T19:54:52.457Z,15.70
2019-06-08T19:57:37.145Z,15.70
2019-06-08T20:00:27.507Z,15.70
2019-06-08T20:03:14.702Z,15.70
2019-06-08T20:06:03.038Z,15.60
2019-06-08T20:09:07.883Z,15.60
2019-06-08T20:14:37.271Z,15.60
2019-06-08T20:17:24.925Z,15.50
2019-06-08T20:20:13.208Z,15.50
2019-06-08T20:23:01.230Z,15.50
2019-06-08T20:25:51.244Z,15.40
2019-06-08T20:28:41.587Z,15.30
2019-06-08T20:31:21.486Z,15.30
2019-06-08T20:34:03.940Z,15.20
2019-06-08T20:39:27.366Z,15.10
2019-06-08T20:42:11.577Z,15.10
2019-06-08T20:44:51.704Z,15.10
2019-06-08T20:47:35.432Z,15.10
2019-06-08T20:50:17.519Z,15.10
2019-06-08T20:52:57.807Z,15.10
2019-06-08T20:55:40.513Z,15.00
2019-06-08T20:58:20.670Z,15.00
2019-06-08T21:01:01.325Z,15.00
2019-06-08T21:03:43.579Z,15.00
2019-06-08T21:06:24.212Z,14.90
2019-06-08T21:09:04.984Z,14.90
2019-06-08T21:11:49.361Z,14.90
2019-06-08T21:14:28.617Z,14.80
2019-06-08T21:17:09.320Z,14.80
2019-06-08T21:22:59.653Z,14.70
2019-06-08T21:25:41.048Z,14.70
2019-06-08T21:28:21.866Z,14.60
2019-06-08T21:31:02.522Z,14.60
2019-06-08T21:33:43.430Z,14.60
2019-06-08T21:39:30.230Z,14.60
2019-06-08T21:42:10.601Z,14.60
2019-06-08T21:54:07.103Z,14.60
2019-06-08T21:56:50.048Z,14.60
2019-06-08T22:02:37.456Z,14.50
2019-06-08T22:05:17.692Z,14.50
2019-06-08T22:08:00.019Z,14.40
2019-06-08T22:10:41.406Z,14.40
2019-06-08T22:13:22.603Z,14.40
2019-06-08T22:16:04.197Z,14.40
2019-06-08T22:18:47.530Z,14.40
2019-06-08T22:21:28.196Z,14.40
2019-06-08T22:24:09.074Z,14.30
2019-06-08T22:26:37.940Z,14.30
2019-06-08T22:29:07.768Z,14.30
2019-06-08T22:35:08.043Z,14.30
2019-06-08T22:37:49.477Z,14.20
2019-06-08T22:40:49.717Z,14.20
2019-06-08T22:56:04.534Z,14.10
2019-06-08T22:58:47.777Z,14.00
2019-06-08T23:01:28.096Z,14.00
2019-06-08T23:10:32.846Z,13.90
2019-06-08T23:13:13.417Z,13.90
2019-06-08T23:18:50.802Z,13.90
2019-06-08T23:21:19.408Z,13.80
2019-06-08T23:23:48.000Z,13.80
2019-06-08T23:26:18.293Z,13.80
2019-06-08T23:28:48.132Z,13.80
2019-06-08T23:31:25.069Z,13.80
2019-06-08T23:33:48.435Z,13.80
2019-06-08T23:36:50.785Z,13.70
2019-06-08T23:38:48.492Z,13.70
2019-06-08T23:41:17.993Z,13.70
2019-06-08T23:43:48.116Z,13.70
2019-06-08T23:50:02.554Z,13.60
2019-06-08T23:52:50.979Z,13.60
2019-06-08T23:59:47.692Z,13.50
